Time;durP1;ratioP1;P1;durP2;ratioP2;P2;SDS_P1;SDS_P2;PMS_P1;PMS_P2;Temp;Humidity;BMP_temperature;BMP_pressure;BME280_temperature;BME280_humidity;BME280_pressure;Samples;Min_cycle;Max_cycle;Signal;HPM_P1;HPM_P2
2022/07/19 00:00:24;;;;;;;10.18;7.10;;;28.80;99.90;;;;;;1769421;80;21102;-84
2022/07/19 00:02:55;;;;;;;14.00;7.17;;;28.80;99.90;;;;;;1803787;77;21116;-83
2022/07/19 00:05:26;;;;;;;13.88;6.78;;;28.80;99.90;;;;;;1789388;80;21187;-83
2022/07/19 00:07:57;;;;;;;19.10;7.47;;;28.90;99.90;;;;;;1785099;79;21283;-83
2022/07/19 00:10:28;;;;;;;14.23;8.15;;;28.90;99.90;;;;;;1789068;80;21232;-83
2022/07/19 00:12:59;;;;;;;13.53;6.90;;;28.90;99.90;;;;;;1811647;79;21196;-83
2022/07/19 00:15:30;;;;;;;11.85;6.80;;;29.00;99.90;;;;;;1820887;79;21610;-84
2022/07/19 00:18:01;;;;;;;11.18;6.22;;;29.00;99.90;;;;;;1822182;77;21202;-84
2022/07/19 00:20:32;;;;;;;13.45;6.78;;;29.10;99.90;;;;;;1812643;78;21246;-83
2022/07/19 00:23:03;;;;;;;13.38;6.65;;;29.10;99.90;;;;;;1817948;79;21150;-82
2022/07/19 00:25:34;;;;;;;11.30;6.20;;;29.10;99.90;;;;;;1814539;79;21242;-84
2022/07/19 00:28:05;;;;;;;11.97;6.17;;;29.10;99.90;;;;;;1814070;79;21142;-83
2022/07/19 00:30:36;;;;;;;11.73;6.20;;;29.10;99.90;;;;;;1809692;78;21666;-82
2022/07/19 00:33:08;;;;;;;13.80;6.72;;;29.10;99.80;;;;;;1809262;79;21875;-83
2022/07/19 00:35:40;;;;;;;12.78;6.12;;;29.20;99.80;;;;;;1806116;79;21653;-84
2022/07/19 00:38:12;;;;;;;11.97;6.37;;;29.30;99.90;;;;;;1819698;78;21193;-83
2022/07/19 00:40:44;;;;;;;10.60;6.62;;;29.30;99.80;;;;;;1806573;78;21738;-82
2022/07/19 00:43:15;;;;;;;11.90;6.30;;;29.30;99.70;;;;;;1821061;78;21119;-82
2022/07/19 00:45:46;;;;;;;13.43;6.17;;;29.40;99.80;;;;;;1820954;78;21136;-82
2022/07/19 00:48:17;;;;;;;10.53;5.47;;;29.40;99.50;;;;;;1787759;80;21803;-83
2022/07/19 00:50:48;;;;;;;12.00;5.72;;;29.40;99.40;;;;;;1788646;79;21174;-83
2022/07/19 00:53:20;;;;;;;16.48;6.05;;;29.40;99.30;;;;;;1793570;79;21079;-82
2022/07/19 00:55:54;;;;;;;11.43;6.75;;;29.50;99.60;;;;;;1811660;78;21635;-84
2022/07/19 00:58:26;;;;;;;11.40;6.87;;;29.50;99.30;;;;;;1806088;79;21235;-83
2022/07/19 01:00:58;;;;;;;12.37;6.47;;;29.50;99.50;;;;;;1821814;77;21079;-85
2022/07/19 01:03:29;;;;;;;9.88;6.33;;;29.50;99.40;;;;;;1795875;78;21149;-85
2022/07/19 01:06:00;;;;;;;12.75;6.37;;;29.60;99.60;;;;;;1804890;78;21079;-85
2022/07/19 01:08:31;;;;;;;9.00;5.80;;;29.60;99.50;;;;;;1788532;79;21160;-85
2022/07/19 01:11:04;;;;;;;21.85;6.62;;;29.60;99.30;;;;;;1802318;79;21232;-83
2022/07/19 01:13:35;;;;;;;11.40;6.25;;;29.70;99.30;;;;;;1796633;78;21112;-84
2022/07/19 01:16:07;;;;;;;9.70;6.05;;;29.80;99.10;;;;;;1765687;80;21571;-84
2022/07/19 01:18:38;;;;;;;11.63;6.53;;;29.80;98.90;;;;;;1793112;80;21207;-85
2022/07/19 01:21:10;;;;;;;15.45;5.92;;;29.90;98.70;;;;;;1789586;79;21170;-85
2022/07/19 01:23:41;;;;;;;10.25;6.28;;;29.90;98.70;;;;;;1780632;80;21160;-85
2022/07/19 01:26:12;;;;;;;11.80;6.62;;;30.00;98.70;;;;;;1779179;80;21184;-83
2022/07/19 01:28:44;;;;;;;12.75;6.53;;;30.00;98.70;;;;;;1792117;79;21668;-84
2022/07/19 01:31:27;;;;;;;14.75;7.80;;;30.20;98.40;;;;;;1798182;78;22325;-84
2022/07/19 01:33:58;;;;;;;12.28;6.58;;;30.20;98.30;;;;;;1794065;79;21404;-84
2022/07/19 01:36:29;;;;;;;14.75;6.05;;;30.30;98.20;;;;;;1798498;78;21205;-83
2022/07/19 01:39:00;;;;;;;13.35;6.35;;;30.40;98.00;;;;;;1787519;79;21132;-84
2022/07/19 01:41:31;;;;;;;12.93;5.90;;;30.40;97.90;;;;;;1792587;78;21206;-84
2022/07/19 01:44:02;;;;;;;13.25;5.37;;;30.50;97.60;;;;;;1790386;79;21266;-83
2022/07/19 01:46:34;;;;;;;12.25;5.87;;;30.50;97.20;;;;;;1783110;79;21707;-85
2022/07/19 01:49:05;;;;;;;9.78;4.80;;;30.60;97.40;;;;;;1794728;78;21118;-84
2022/07/19 01:51:36;;;;;;;8.28;4.85;;;30.70;96.60;;;;;;1778313;80;21638;-83
2022/07/19 01:54:06;;;;;;;10.48;5.37;;;30.80;96.40;;;;;;1757963;80;21394;-83
2022/07/19 01:56:39;;;;;;;8.23;5.00;;;30.90;96.40;;;;;;1790180;79;21155;-83
2022/07/19 01:59:13;;;;;;;11.20;5.33;;;31.00;95.90;;;;;;1787901;79;21254;-82
2022/07/19 02:01:44;;;;;;;11.03;5.45;;;31.00;96.00;;;;;;1787848;79;21099;-84
2022/07/19 02:04:15;;;;;;;9.05;5.37;;;31.10;95.60;;;;;;1785936;78;21730;-83
2022/07/19 02:06:52;;;;;;;15.08;5.53;;;31.10;95.10;;;;;;1855431;77;21830;-85
2022/07/19 02:09:19;;;;;;;9.03;5.08;;;31.20;95.20;;;;;;1814388;77;21221;-83
2022/07/19 02:11:51;;;;;;;15.18;4.83;;;31.20;95.10;;;;;;1814716;78;21185;-70
2022/07/19 02:14:22;;;;;;;11.83;5.70;;;31.30;95.30;;;;;;1863725;76;21594;-70
2022/07/19 02:16:54;;;;;;;16.12;5.37;;;31.40;95.00;;;;;;1814967;78;21114;-69
2022/07/19 02:19:24;;;;;;;10.48;5.17;;;31.50;94.70;;;;;;1813084;79;21179;-69
2022/07/19 02:21:55;;;;;;;10.80;5.10;;;31.50;94.40;;;;;;1856449;76;21142;-70
2022/07/19 02:24:27;;;;;;;10.90;6.00;;;31.60;94.50;;;;;;1856895;76;21165;-68
2022/07/19 02:26:58;;;;;;;10.15;5.00;;;31.60;94.40;;;;;;1813246;79;21146;-70
2022/07/19 02:29:29;;;;;;;10.75;5.12;;;31.70;93.50;;;;;;1852660;76;21118;-70
2022/07/19 02:32:00;;;;;;;11.73;5.58;;;31.60;93.40;;;;;;1853829;77;21118;-69
2022/07/19 02:34:31;;;;;;;12.33;5.35;;;31.60;93.80;;;;;;1852663;77;21174;-70
2022/07/19 02:37:03;;;;;;;11.78;4.60;;;31.70;93.70;;;;;;1813236;79;21172;-69
2022/07/19 02:39:34;;;;;;;11.88;5.10;;;31.80;93.30;;;;;;1856727;77;21232;-69
2022/07/19 02:42:04;;;;;;;9.90;5.35;;;31.80;93.60;;;;;;1856809;76;21192;-71
2022/07/19 02:44:35;;;;;;;11.12;5.12;;;31.80;93.90;;;;;;1857164;77;21169;-70
2022/07/19 02:47:06;;;;;;;13.93;5.22;;;31.80;94.00;;;;;;1856766;76;21141;-69
2022/07/19 02:49:37;;;;;;;9.63;4.92;;;31.90;94.20;;;;;;1856761;77;21142;-69
2022/07/19 02:52:08;;;;;;;12.37;5.15;;;32.00;93.80;;;;;;1856657;77;21502;-69
2022/07/19 02:54:39;;;;;;;11.22;5.40;;;32.10;93.40;;;;;;1857263;77;21146;-68
2022/07/19 02:57:10;;;;;;;10.65;4.83;;;32.20;92.80;;;;;;1815753;77;21087;-70
2022/07/19 02:59:41;;;;;;;15.95;5.08;;;32.30;92.70;;;;;;1856361;77;21063;-69
2022/07/19 03:02:12;;;;;;;11.45;4.97;;;32.40;92.20;;;;;;1814605;79;21226;-70
2022/07/19 03:04:44;;;;;;;12.88;4.87;;;32.40;92.10;;;;;;1814178;78;21640;-70
2022/07/19 03:07:15;;;;;;;13.60;5.12;;;32.50;92.30;;;;;;1788789;80;21560;-70
2022/07/19 03:09:48;;;;;;;11.40;4.70;;;32.60;92.30;;;;;;1811150;79;21614;-70
2022/07/19 03:12:19;;;;;;;9.45;5.12;;;32.70;91.70;;;;;;1821546;77;21689;-71
2022/07/19 03:14:50;;;;;;;7.85;4.67;;;32.80;91.80;;;;;;1820201;77;21113;-71
2022/07/19 03:17:21;;;;;;;10.98;5.50;;;32.90;91.10;;;;;;1810203;78;21147;-70
2022/07/19 03:19:52;;;;;;;13.00;4.97;;;32.90;91.30;;;;;;1787998;79;21129;-70
2022/07/19 03:22:23;;;;;;;11.40;4.72;;;32.80;91.50;;;;;;1781049;80;21185;-71
2022/07/19 03:24:56;;;;;;;7.97;4.42;;;32.80;91.50;;;;;;1792643;79;21236;-70
2022/07/19 03:27:26;;;;;;;8.93;4.70;;;32.80;91.50;;;;;;1811965;79;21716;-69
2022/07/19 03:29:57;;;;;;;8.23;4.25;;;32.70;91.80;;;;;;1819847;79;21539;-70
2022/07/19 03:32:28;;;;;;;11.60;4.72;;;32.80;91.30;;;;;;1808086;79;21672;-72
2022/07/19 03:34:59;;;;;;;9.38;4.90;;;32.80;91.50;;;;;;1803204;79;21219;-70
2022/07/19 03:37:30;;;;;;;9.80;4.97;;;32.80;91.40;;;;;;1786904;80;21242;-69
2022/07/19 03:40:05;;;;;;;12.30;4.67;;;32.80;91.40;;;;;;1784649;80;21158;-70
2022/07/19 03:42:37;;;;;;;11.10;4.53;;;32.90;91.00;;;;;;1816447;79;21328;-73
2022/07/19 03:45:08;;;;;;;7.50;4.35;;;32.80;90.70;;;;;;1803197;78;21193;-70
2022/07/19 03:47:39;;;;;;;8.33;4.72;;;32.70;90.80;;;;;;1803559;79;21180;-69
2022/07/19 03:50:10;;;;;;;10.90;4.22;;;32.80;91.10;;;;;;1806276;79;21792;-72
2022/07/19 03:52:42;;;;;;;8.08;4.20;;;32.90;90.60;;;;;;1801051;79;21260;-69
2022/07/19 03:55:13;;;;;;;9.03;4.75;;;33.00;90.60;;;;;;1777582;79;21656;-69
2022/07/19 03:57:43;;;;;;;9.65;4.92;;;33.10;90.80;;;;;;1778402;80;21695;-69
2022/07/19 04:00:15;;;;;;;9.15;4.20;;;33.30;90.70;;;;;;1816262;77;21591;-70
2022/07/19 04:02:46;;;;;;;10.98;4.37;;;33.40;90.40;;;;;;1819613;77;21664;-70
2022/07/19 04:05:17;;;;;;;10.80;4.62;;;33.50;90.10;;;;;;1812936;79;21643;-69
2022/07/19 04:07:48;;;;;;;10.30;4.12;;;33.60;89.90;;;;;;1792198;79;21470;-69
2022/07/19 04:10:19;;;;;;;10.35;4.20;;;33.60;89.80;;;;;;1756774;81;21160;-69
2022/07/19 04:12:50;;;;;;;9.68;4.25;;;33.70;89.20;;;;;;1797968;79;21744;-70
2022/07/19 04:15:21;;;;;;;8.10;4.10;;;33.70;87.90;;;;;;1794061;79;21237;-70
2022/07/19 04:17:52;;;;;;;8.68;3.65;;;33.70;88.30;;;;;;1789785;80;21489;-70
2022/07/19 04:20:23;;;;;;;7.92;3.98;;;33.70;87.40;;;;;;1799073;79;21111;-70
2022/07/19 04:22:56;;;;;;;9.10;4.05;;;33.80;86.80;;;;;;1762996;80;21688;-70
2022/07/19 04:25:27;;;;;;;8.48;3.85;;;33.80;87.10;;;;;;1775217;80;21193;-71
2022/07/19 04:27:58;;;;;;;9.23;4.58;;;33.90;87.40;;;;;;1763912;80;21579;-70
2022/07/19 04:30:30;;;;;;;8.65;3.92;;;34.00;86.60;;;;;;1795697;79;21156;-71
2022/07/19 04:33:01;;;;;;;6.25;3.85;;;33.90;86.90;;;;;;1783048;77;21048;-70
2022/07/19 04:35:32;;;;;;;9.85;3.95;;;33.90;85.80;;;;;;1808096;77;21095;-71
2022/07/19 04:38:03;;;;;;;5.45;3.37;;;33.90;86.40;;;;;;1793661;78;21266;-71
2022/07/19 04:40:34;;;;;;;10.78;4.10;;;34.00;87.40;;;;;;1809973;77;21118;-71
2022/07/19 04:43:05;;;;;;;9.90;3.87;;;34.20;87.30;;;;;;1794582;78;21090;-71
2022/07/19 04:45:36;;;;;;;7.70;3.30;;;34.30;85.00;;;;;;1790259;78;21171;-70
2022/07/19 04:48:07;;;;;;;8.50;3.92;;;34.40;85.30;;;;;;1794632;79;21232;-69
2022/07/19 04:50:38;;;;;;;12.65;3.80;;;34.50;85.60;;;;;;1791796;79;21222;-69
2022/07/19 04:53:10;;;;;;;7.33;3.58;;;34.50;84.60;;;;;;1803688;79;21528;-70
2022/07/19 04:55:40;;;;;;;10.75;4.12;;;34.50;85.80;;;;;;1777083;80;21115;-70
2022/07/19 04:58:11;;;;;;;7.70;3.70;;;34.50;84.80;;;;;;1758752;80;21457;-69
2022/07/19 05:00:43;;;;;;;9.38;3.80;;;34.60;84.10;;;;;;1798283;79;21161;-70
2022/07/19 05:03:14;;;;;;;12.60;5.22;;;34.60;84.60;;;;;;1798563;78;21116;-69
2022/07/19 05:05:45;;;;;;;7.78;3.58;;;34.60;85.10;;;;;;1788166;78;21110;-70
2022/07/19 05:08:17;;;;;;;9.40;3.50;;;34.50;84.60;;;;;;1776555;80;21615;-69
2022/07/19 05:10:48;;;;;;;7.80;3.98;;;34.50;84.60;;;;;;1856989;77;21629;-71
2022/07/19 05:13:19;;;;;;;8.23;3.87;;;34.50;85.20;;;;;;1857415;77;21613;-70
2022/07/19 05:15:51;;;;;;;7.15;3.80;;;34.50;85.60;;;;;;1810164;78;21153;-70
2022/07/19 05:18:22;;;;;;;9.23;4.17;;;34.60;85.20;;;;;;1789123;79;21140;-70
2022/07/19 05:20:54;;;;;;;9.58;4.03;;;34.70;84.20;;;;;;1855337;77;21143;-70
2022/07/19 05:23:25;;;;;;;5.47;2.90;;;34.70;84.00;;;;;;1857075;77;21095;-70
2022/07/19 05:25:56;;;;;;;9.78;3.77;;;34.80;83.20;;;;;;1855772;76;21201;-70
2022/07/19 05:28:27;;;;;;;6.95;2.90;;;34.60;83.20;;;;;;1811349;79;21068;-68
2022/07/19 05:30:59;;;;;;;7.60;3.47;;;34.70;84.20;;;;;;1856123;77;21157;-71
2022/07/19 05:33:30;;;;;;;5.97;3.17;;;34.70;84.40;;;;;;1858619;76;21173;-71
2022/07/19 05:36:01;;;;;;;7.12;3.62;;;34.70;83.80;;;;;;1811976;79;21097;-70
2022/07/19 05:38:34;;;;;;;8.50;4.15;;;34.70;82.90;;;;;;1812829;79;21214;-70
2022/07/19 05:41:05;;;;;;;6.25;3.65;;;34.70;82.60;;;;;;1849298;77;21136;-69
2022/07/19 05:43:38;;;;;;;7.28;3.58;;;34.70;82.70;;;;;;1856241;77;21214;-68
2022/07/19 05:46:09;;;;;;;9.18;3.35;;;34.80;81.80;;;;;;1856005;77;21523;-70
2022/07/19 05:48:40;;;;;;;8.03;3.83;;;34.80;81.70;;;;;;1856119;77;21225;-70
2022/07/19 05:51:10;;;;;;;10.88;3.27;;;35.00;81.30;;;;;;1823247;78;21771;-70
2022/07/19 05:53:42;;;;;;;8.90;3.50;;;35.00;82.40;;;;;;1857435;76;21229;-70
2022/07/19 05:56:12;;;;;;;6.72;3.30;;;35.10;81.30;;;;;;1858646;76;21177;-70
2022/07/19 05:58:44;;;;;;;9.20;4.08;;;35.10;81.30;;;;;;1815973;78;21708;-71
2022/07/19 06:01:18;;;;;;;7.72;3.40;;;35.10;80.60;;;;;;1790628;78;21718;-70
2022/07/19 06:03:50;;;;;;;9.13;3.45;;;35.20;81.30;;;;;;1823583;78;21115;-71
2022/07/19 06:06:24;;;;;;;6.80;3.30;;;35.20;80.10;;;;;;1854023;76;21181;-71
2022/07/19 06:08:55;;;;;;;8.28;3.35;;;35.40;80.70;;;;;;1820908;77;21147;-70
2022/07/19 06:11:27;;;;;;;8.70;3.30;;;35.30;80.50;;;;;;1795286;79;21207;-71
2022/07/19 06:13:58;;;;;;;7.45;3.60;;;35.30;81.30;;;;;;1830290;77;21232;-70
2022/07/19 06:16:29;;;;;;;7.00;3.10;;;35.30;81.70;;;;;;1799834;79;21223;-70
2022/07/19 06:19:01;;;;;;;9.03;3.05;;;35.30;81.00;;;;;;1785726;79;21652;-70
2022/07/19 06:21:32;;;;;;;7.42;3.08;;;35.20;79.70;;;;;;1820336;79;21195;-70
2022/07/19 06:24:04;;;;;;;7.10;3.45;;;35.20;79.10;;;;;;1796864;79;21532;-69
2022/07/19 06:37:52;;;;;;;13.22;4.55;;;35.00;83.00;;;;;;1886509;72;21166;-74
2022/07/19 06:40:23;;;;;;;8.08;4.70;;;34.80;84.60;;;;;;1929836;73;21118;-73
2022/07/19 06:42:58;;;;;;;10.08;4.05;;;34.70;85.30;;;;;;1924600;74;21386;-74
2022/07/19 06:45:50;;;;;;;14.00;6.00;;;34.60;85.50;;;;;;1890119;74;21141;-74
2022/07/19 06:48:21;;;;;;;11.33;4.17;;;34.40;86.40;;;;;;1927776;74;21804;-74
2022/07/19 06:50:52;;;;;;;9.40;4.83;;;34.30;86.50;;;;;;1932527;73;21164;-73
2022/07/19 06:53:26;;;;;;;10.50;5.17;;;34.20;86.80;;;;;;1927609;74;21383;-74
2022/07/19 06:56:01;;;;;;;9.75;4.70;;;34.20;87.40;;;;;;1891981;76;21407;-74
2022/07/19 06:58:39;;;;;;;13.93;4.60;;;34.20;87.10;;;;;;1922455;73;21128;-74
2022/07/19 07:01:11;;;;;;;10.72;5.15;;;34.20;87.00;;;;;;1890959;76;21078;-74
2022/07/19 07:03:46;;;;;;;11.25;4.97;;;34.20;87.30;;;;;;1889031;76;21457;-74
2022/07/19 07:06:17;;;;;;;11.10;4.58;;;34.20;88.20;;;;;;1882251;76;21107;-72
2022/07/19 07:09:02;;;;;;;11.12;4.40;;;34.20;87.20;;;;;;1880712;76;21146;-73
2022/07/19 07:11:37;;;;;;;7.42;4.00;;;34.20;87.40;;;;;;1923844;74;21159;-73
2022/07/19 07:14:08;;;;;;;6.70;3.83;;;34.10;88.90;;;;;;1915592;74;21187;-74
2022/07/19 07:16:41;;;;;;;10.58;3.92;;;34.60;87.50;;;;;;1895530;74;21479;-73
2022/07/19 07:19:13;;;;;;;8.23;4.90;;;34.10;87.00;;;;;;1893098;76;21117;-73
2022/07/19 07:21:44;;;;;;;8.33;4.10;;;34.10;86.40;;;;;;1926211;74;21147;-73
2022/07/19 07:24:15;;;;;;;8.38;3.77;;;34.10;86.60;;;;;;1897191;73;21111;-73
2022/07/19 07:26:53;;;;;;;6.97;3.70;;;34.10;88.30;;;;;;1892834;75;21115;-74
2022/07/19 07:29:24;;;;;;;9.00;4.12;;;34.00;86.60;;;;;;1939540;73;21508;-74
2022/07/19 07:31:58;;;;;;;6.97;3.87;;;34.00;87.10;;;;;;1892423;76;21430;-74
2022/07/19 07:34:29;;;;;;;7.92;4.78;;;33.90;87.60;;;;;;1929256;73;21495;-74
2022/07/19 07:37:05;;;;;;;9.78;4.47;;;33.90;88.30;;;;;;1907154;74;21215;-74
2022/07/19 07:39:38;;;;;;;11.48;4.95;;;33.90;87.80;;;;;;1940212;73;21154;-74
2022/07/19 07:42:09;;;;;;;10.88;4.33;;;33.80;87.80;;;;;;1910331;74;21180;-74
2022/07/19 07:44:42;;;;;;;8.15;5.53;;;33.80;88.00;;;;;;1908174;74;21212;-75
2022/07/19 07:47:13;;;;;;;6.22;4.08;;;33.90;87.10;;;;;;1896914;74;21090;-75
2022/07/19 07:49:44;;;;;;;8.03;4.20;;;33.90;87.20;;;;;;1895300;75;21098;-74
2022/07/19 07:52:16;;;;;;;21.35;4.72;;;34.10;87.10;;;;;;1918348;73;21096;-75
2022/07/19 07:54:50;;;;;;;8.60;4.42;;;34.10;87.20;;;;;;1917247;74;21054;-74
2022/07/19 07:57:25;;;;;;;9.78;5.08;;;34.20;87.10;;;;;;1923313;73;21162;-74
2022/07/19 08:00:00;;;;;;;7.05;4.30;;;34.30;86.40;;;;;;1913720;74;21128;-75
2022/07/19 08:02:33;;;;;;;9.50;4.50;;;34.30;86.00;;;;;;1931804;73;21220;-74
2022/07/19 08:05:04;;;;;;;11.68;4.85;;;34.40;86.50;;;;;;1915248;73;21414;-74
2022/07/19 08:07:36;;;;;;;7.65;4.33;;;34.40;87.40;;;;;;1913933;73;21412;-74
2022/07/19 08:10:08;;;;;;;7.87;3.90;;;34.40;86.80;;;;;;1910494;73;21192;-73
2022/07/19 08:12:39;;;;;;;12.73;5.03;;;34.40;86.80;;;;;;1924520;73;21600;-74
2022/07/19 08:15:11;;;;;;;7.12;3.90;;;34.30;86.90;;;;;;1913850;73;21458;-74
2022/07/19 08:17:42;;;;;;;6.78;4.00;;;34.20;85.80;;;;;;1913732;73;21184;-75
2022/07/19 08:20:18;;;;;;;7.70;3.87;;;34.20;86.80;;;;;;1912906;75;21111;-74
2022/07/19 08:23:01;;;;;;;5.75;3.37;;;34.20;87.40;;;;;;1911234;75;21409;-75
2022/07/19 08:25:33;;;;;;;6.70;3.42;;;34.10;86.60;;;;;;1909966;75;21209;-74
2022/07/19 08:28:05;;;;;;;7.47;3.33;;;34.10;86.00;;;;;;1913666;75;21395;-74
2022/07/19 08:30:36;;;;;;;5.45;3.10;;;34.00;85.80;;;;;;1912836;75;21086;-74
2022/07/19 08:33:09;;;;;;;7.12;3.00;;;34.00;84.70;;;;;;1908059;75;21157;-74
2022/07/19 08:35:40;;;;;;;5.75;3.10;;;33.90;84.60;;;;;;1907239;75;21638;-75
2022/07/19 08:38:12;;;;;;;5.90;3.40;;;33.80;84.90;;;;;;1912862;75;21047;-74
2022/07/19 08:40:44;;;;;;;6.40;3.37;;;33.80;84.50;;;;;;1915336;75;21981;-76
2022/07/19 08:43:20;;;;;;;6.12;3.77;;;33.80;85.20;;;;;;1921614;73;21148;-74
2022/07/19 08:45:51;;;;;;;7.80;4.17;;;33.80;86.30;;;;;;1928114;73;21553;-74
2022/07/19 08:48:23;;;;;;;6.03;3.98;;;33.80;87.80;;;;;;1935393;74;21124;-74
2022/07/19 08:50:55;;;;;;;7.97;3.80;;;33.80;88.40;;;;;;1898098;73;21189;-73
2022/07/19 08:53:28;;;;;;;9.53;3.33;;;33.60;88.80;;;;;;1914055;75;21351;-73
2022/07/19 08:56:01;;;;;;;7.67;2.92;;;33.40;89.10;;;;;;1913154;75;21394;-74
2022/07/19 08:58:32;;;;;;;5.05;2.50;;;33.10;89.20;;;;;;1914062;75;21160;-74
2022/07/19 09:01:03;;;;;;;4.45;2.40;;;32.90;89.40;;;;;;1915668;75;21040;-73
2022/07/19 09:03:35;;;;;;;4.97;2.10;;;32.70;89.20;;;;;;1899511;75;21410;-74
2022/07/19 09:06:06;;;;;;;5.22;2.05;;;32.40;89.00;;;;;;1900752;75;21398;-73
2022/07/19 09:08:39;;;;;;;4.62;2.10;;;32.30;90.00;;;;;;1906295;75;21177;-73
2022/07/19 09:11:16;;;;;;;4.97;2.50;;;32.10;90.10;;;;;;1902691;75;21151;-74
2022/07/19 09:13:43;;;;;;;5.53;2.70;;;32.10;90.50;;;;;;1906012;74;21125;-74
2022/07/19 09:16:16;;;;;;;6.35;2.20;;;32.00;90.70;;;;;;1916471;74;21150;-73
2022/07/19 09:18:49;;;;;;;5.50;2.17;;;31.90;90.90;;;;;;1924961;74;21224;-73
2022/07/19 09:21:20;;;;;;;6.55;2.40;;;31.90;91.00;;;;;;1908353;74;21157;-73
2022/07/19 09:23:53;;;;;;;5.28;3.05;;;31.90;91.10;;;;;;1943123;73;21141;-74
2022/07/19 09:26:27;;;;;;;7.33;3.20;;;31.70;91.00;;;;;;1904936;74;21052;-73
2022/07/19 09:29:01;;;;;;;6.42;3.25;;;31.60;91.60;;;;;;1926192;73;21113;-74
2022/07/19 09:31:33;;;;;;;7.50;3.22;;;31.50;92.40;;;;;;1910533;74;21458;-74
2022/07/19 09:34:04;;;;;;;7.65;2.83;;;31.30;93.30;;;;;;1942400;73;21130;-73
2022/07/19 09:36:35;;;;;;;5.75;2.90;;;31.00;93.40;;;;;;1941320;73;21127;-73
2022/07/19 09:39:06;;;;;;;9.00;3.25;;;30.80;94.10;;;;;;1925108;74;21344;-73
2022/07/19 09:41:38;;;;;;;5.72;2.50;;;30.40;94.70;;;;;;1890669;74;21107;-73
2022/07/19 09:44:09;;;;;;;5.78;2.22;;;30.20;94.70;;;;;;1911127;74;21060;-74
2022/07/19 09:46:44;;;;;;;7.05;2.62;;;29.90;94.60;;;;;;1917906;73;21094;-74
2022/07/19 09:49:17;;;;;;;8.30;2.40;;;29.60;95.10;;;;;;1925540;73;21113;-74
2022/07/19 09:51:50;;;;;;;3.70;1.45;;;29.40;95.90;;;;;;1941276;73;21367;-74
2022/07/19 09:54:31;;;;;;;4.45;1.45;;;29.20;94.90;;;;;;1941548;73;21139;-74
2022/07/19 09:57:12;;;;;;;8.05;2.05;;;29.10;95.60;;;;;;1939158;73;21330;-74
2022/07/19 09:59:45;;;;;;;4.12;1.27;;;28.90;96.20;;;;;;1905373;74;21133;-74
2022/07/19 10:02:27;;;;;;;5.92;1.40;;;28.80;96.00;;;;;;1916536;73;21117;-73
2022/07/19 10:05:00;;;;;;;6.50;2.00;;;28.70;96.80;;;;;;1879902;74;21112;-73
2022/07/19 10:07:35;;;;;;;5.12;2.20;;;28.60;96.60;;;;;;1904435;74;21585;-73
2022/07/19 10:10:10;;;;;;;8.45;2.52;;;28.60;97.40;;;;;;1913214;73;21112;-73
2022/07/19 10:12:46;;;;;;;5.50;2.00;;;28.40;97.60;;;;;;1900136;74;21062;-73
2022/07/19 10:15:22;;;;;;;6.53;1.87;;;28.30;98.50;;;;;;1910808;74;21191;-73
2022/07/19 10:17:56;;;;;;;5.37;2.25;;;28.20;98.80;;;;;;1918986;74;21429;-73
2022/07/19 10:20:29;;;;;;;5.20;1.77;;;28.20;98.90;;;;;;1927011;73;21072;-74
2022/07/19 10:23:02;;;;;;;4.55;1.60;;;28.20;99.00;;;;;;1939794;73;21091;-74
2022/07/19 10:25:35;;;;;;;6.22;2.10;;;28.20;99.60;;;;;;1899944;74;21358;-74
2022/07/19 10:28:08;;;;;;;5.47;2.20;;;28.30;99.60;;;;;;1917854;73;21134;-73
2022/07/19 10:30:43;;;;;;;7.50;2.45;;;28.30;99.90;;;;;;1900264;74;21042;-74
2022/07/19 10:33:17;;;;;;;16.50;3.83;;;28.40;99.90;;;;;;1904661;74;21210;-74
2022/07/19 10:35:49;;;;;;;8.40;2.92;;;28.40;99.30;;;;;;1913596;74;21248;-74
2022/07/19 10:38:20;;;;;;;6.30;2.58;;;28.50;99.10;;;;;;1926720;73;22004;-74
2022/07/19 10:40:58;;;;;;;6.85;2.70;;;28.50;99.90;;;;;;1928355;73;21357;-73
2022/07/19 10:43:29;;;;;;;7.50;2.58;;;28.60;99.70;;;;;;1930118;73;21438;-73
2022/07/19 10:46:02;;;;;;;7.60;2.30;;;28.50;99.10;;;;;;1920018;74;21136;-73
2022/07/19 10:48:39;;;;;;;6.95;2.55;;;28.50;99.30;;;;;;1905491;75;21559;-74
2022/07/19 10:51:17;;;;;;;5.97;2.10;;;28.40;99.90;;;;;;1936824;73;21154;-74
2022/07/19 10:53:50;;;;;;;7.67;2.42;;;28.40;99.90;;;;;;1925382;73;21070;-73
2022/07/19 10:56:24;;;;;;;5.28;1.90;;;28.40;99.40;;;;;;1924285;73;21436;-74
2022/07/19 10:58:57;;;;;;;4.33;2.02;;;28.40;99.20;;;;;;1919145;73;21150;-74
2022/07/19 11:01:33;;;;;;;5.80;2.00;;;28.40;99.70;;;;;;1940322;73;21161;-73
2022/07/19 11:04:07;;;;;;;5.37;2.12;;;28.30;99.90;;;;;;1928024;73;21515;-73
2022/07/19 11:06:39;;;;;;;7.70;2.90;;;28.30;99.90;;;;;;1932295;73;21046;-73
2022/07/19 11:09:10;;;;;;;7.15;2.10;;;28.30;99.90;;;;;;1944969;73;21096;-74
2022/07/19 11:11:43;;;;;;;6.95;2.70;;;28.30;99.90;;;;;;1933600;73;21246;-74
2022/07/19 11:14:26;;;;;;;5.35;1.98;;;28.30;99.90;;;;;;1931105;73;21192;-73
2022/07/19 11:17:01;;;;;;;7.95;2.35;;;28.30;99.90;;;;;;1913184;74;21109;-73
2022/07/19 11:19:33;;;;;;;5.03;2.02;;;28.20;99.40;;;;;;1906766;74;21207;-73
2022/07/19 11:22:04;;;;;;;4.87;2.10;;;28.20;99.80;;;;;;1911156;74;21396;-73
2022/07/19 11:24:37;;;;;;;6.40;2.30;;;28.20;99.70;;;;;;1917109;74;21226;-73
2022/07/19 11:27:09;;;;;;;5.65;2.30;;;28.20;99.70;;;;;;1905818;74;21188;-74
2022/07/19 11:29:48;;;;;;;6.08;1.70;;;28.30;99.80;;;;;;1907973;74;21187;-75
2022/07/19 11:32:23;;;;;;;6.78;2.15;;;28.20;99.80;;;;;;1897614;74;21163;-73
2022/07/19 11:34:57;;;;;;;4.78;2.58;;;28.10;99.50;;;;;;1932615;73;21994;-73
2022/07/19 11:37:30;;;;;;;5.05;2.22;;;28.20;99.80;;;;;;1919376;74;21345;-73
2022/07/19 11:40:02;;;;;;;5.72;2.33;;;28.10;99.90;;;;;;1928600;73;21169;-74
2022/07/19 11:45:52;;;;;;;5.58;2.15;;;28.10;99.90;;;;;;1858950;76;21501;-74
2022/07/19 11:48:27;;;;;;;4.55;2.10;;;28.10;99.60;;;;;;1859441;75;21140;-73
2022/07/19 11:51:03;;;;;;;4.95;2.20;;;28.10;99.30;;;;;;1831502;77;21408;-73
2022/07/19 11:53:37;;;;;;;5.65;2.67;;;28.10;99.30;;;;;;1882260;76;21424;-72
2022/07/19 11:56:10;;;;;;;4.00;1.87;;;28.10;99.50;;;;;;1882678;74;21133;-72
2022/07/19 11:58:43;;;;;;;10.78;2.80;;;28.10;99.40;;;;;;1842348;75;21139;-74
2022/07/19 12:01:35;;;;;;;4.75;2.72;;;28.10;98.70;;;;;;1847986;76;21147;-74
2022/07/19 12:04:08;;;;;;;4.47;2.58;;;28.10;98.90;;;;;;1879913;75;21467;-73
2022/07/19 12:06:43;;;;;;;5.05;2.10;;;28.20;98.80;;;;;;1875080;75;21410;-73
2022/07/19 12:09:16;;;;;;;4.75;2.15;;;28.20;99.00;;;;;;1878970;74;21123;-73
2022/07/19 12:11:49;;;;;;;5.37;2.00;;;28.20;99.00;;;;;;1889546;74;21076;-73
2022/07/19 12:14:26;;;;;;;6.55;2.45;;;28.20;99.00;;;;;;1909039;73;21359;-74
2022/07/19 12:17:02;;;;;;;5.08;2.40;;;28.20;98.90;;;;;;1892597;74;21123;-74
2022/07/19 12:19:33;;;;;;;6.90;1.98;;;28.20;98.90;;;;;;1894918;74;21427;-73
2022/07/19 12:22:07;;;;;;;4.83;2.08;;;28.20;99.00;;;;;;1927359;73;21483;-73
2022/07/19 12:24:41;;;;;;;7.35;2.40;;;28.20;98.80;;;;;;1895236;74;21171;-73
2022/07/19 12:27:15;;;;;;;6.62;3.30;;;28.10;99.00;;;;;;1891912;74;21198;-73
2022/07/19 12:29:49;;;;;;;8.48;2.80;;;28.10;99.20;;;;;;1893578;74;21759;-73
2022/07/19 12:32:23;;;;;;;4.33;2.50;;;28.10;99.30;;;;;;1881326;74;21412;-74
2022/07/19 12:35:08;;;;;;;5.72;2.08;;;28.10;99.50;;;;;;1922188;74;21059;-74
2022/07/19 12:37:50;;;;;;;5.83;2.47;;;28.00;99.50;;;;;;1894246;74;21150;-73
2022/07/19 12:40:30;;;;;;;4.87;1.60;;;28.00;99.60;;;;;;1911376;74;21154;-73
2022/07/19 12:43:06;;;;;;;4.95;2.27;;;28.00;99.60;;;;;;1882513;75;21107;-73
2022/07/19 12:45:43;;;;;;;3.47;2.55;;;28.00;99.50;;;;;;1865617;75;21334;-73
2022/07/19 12:48:17;;;;;;;8.35;3.00;;;28.00;99.50;;;;;;1871944;74;21123;-73
2022/07/19 12:51:09;;;;;;;3.85;1.95;;;28.00;99.50;;;;;;1933384;74;21189;-74
2022/07/19 12:53:42;;;;;;;4.95;2.20;;;28.00;99.50;;;;;;1934782;73;21192;-73
2022/07/19 12:56:13;;;;;;;5.85;2.47;;;28.00;99.50;;;;;;1934654;74;21348;-74
2022/07/19 13:01:20;;;;;;;4.90;2.42;;;28.00;99.40;;;;;;1909880;74;21494;-73
2022/07/19 13:04:00;;;;;;;6.03;2.15;;;28.00;99.40;;;;;;1927260;74;21150;-73
2022/07/19 13:06:38;;;;;;;4.42;2.37;;;28.00;99.40;;;;;;1901094;74;21716;-74
2022/07/19 13:09:44;;;;;;;4.65;2.37;;;28.00;99.60;;;;;;1935076;74;21236;-73
2022/07/19 13:12:24;;;;;;;8.30;2.60;;;28.00;99.80;;;;;;1903970;74;21105;-74
2022/07/19 13:14:56;;;;;;;6.23;2.60;;;28.00;99.90;;;;;;1936371;73;21150;-73
2022/07/19 13:17:27;;;;;;;5.33;2.35;;;27.90;99.90;;;;;;1957522;73;21439;-73
2022/07/19 13:20:11;;;;;;;7.12;1.90;;;27.90;99.80;;;;;;1922880;74;21125;-74
2022/07/19 13:22:57;;;;;;;7.55;2.55;;;27.90;99.60;;;;;;1893197;74;21044;-83
2022/07/19 13:26:11;;;;;;;3.20;1.80;;;27.90;99.70;;;;;;1925985;74;21578;-83
2022/07/19 13:29:18;;;;;;;;;;;27.90;99.70;;;;;;1931475;74;21091;-82